sensor_id;sensor_type;location;lat;lon;timestamp;P1;durP1;ratioP1;P2;durP2;ratioP2
13487;SDS011;6816;48.506;9.050;2024-01-30T00:01:47;5.73;;;4.03;;
13487;SDS011;6816;48.506;9.050;2024-01-30T00:04:48;6.57;;;4.33;;
13487;SDS011;6816;48.506;9.050;2024-01-30T00:07:48;5.67;;;4.30;;
13487;SDS011;6816;48.506;9.050;2024-01-30T00:10:50;6.37;;;4.33;;
13487;SDS011;6816;48.506;9.050;2024-01-30T00:13:51;6.10;;;4.50;;
13487;SDS011;6816;48.506;9.050;2024-01-30T00:16:52;6.83;;;4.93;;
13487;SDS011;6816;48.506;9.050;2024-01-30T00:19:52;7.07;;;4.63;;
13487;SDS011;6816;48.506;9.050;2024-01-30T00:22:53;7.10;;;4.83;;
13487;SDS011;6816;48.506;9.050;2024-01-30T00:25:54;5.37;;;4.10;;
13487;SDS011;6816;48.506;9.050;2024-01-30T00:28:54;5.83;;;4.40;;
13487;SDS011;6816;48.506;9.050;2024-01-30T00:31:55;5.07;;;4.00;;
13487;SDS011;6816;48.506;9.050;2024-01-30T00:34:55;5.33;;;3.80;;
13487;SDS011;6816;48.506;9.050;2024-01-30T00:37:56;7.53;;;4.47;;
13487;SDS011;6816;48.506;9.050;2024-01-30T00:40:57;5.47;;;3.63;;
13487;SDS011;6816;48.506;9.050;2024-01-30T00:43:58;5.57;;;4.10;;
13487;SDS011;6816;48.506;9.050;2024-01-30T00:46:59;5.53;;;3.83;;
13487;SDS011;6816;48.506;9.050;2024-01-30T00:49:59;5.47;;;4.20;;
13487;SDS011;6816;48.506;9.050;2024-01-30T00:53:00;5.00;;;4.40;;
13487;SDS011;6816;48.506;9.050;2024-01-30T00:56:01;4.53;;;3.90;;
13487;SDS011;6816;48.506;9.050;2024-01-30T00:59:01;4.80;;;3.80;;
13487;SDS011;6816;48.506;9.050;2024-01-30T01:02:02;7.33;;;4.30;;
13487;SDS011;6816;48.506;9.050;2024-01-30T01:05:02;7.00;;;4.40;;
13487;SDS011;6816;48.506;9.050;2024-01-30T01:08:03;5.50;;;4.10;;
13487;SDS011;6816;48.506;9.050;2024-01-30T01:11:04;5.53;;;4.17;;
13487;SDS011;6816;48.506;9.050;2024-01-30T01:14:04;6.60;;;4.10;;
13487;SDS011;6816;48.506;9.050;2024-01-30T01:17:05;6.57;;;3.70;;
13487;SDS011;6816;48.506;9.050;2024-01-30T01:20:06;6.50;;;3.87;;
13487;SDS011;6816;48.506;9.050;2024-01-30T01:23:07;4.83;;;3.87;;
13487;SDS011;6816;48.506;9.050;2024-01-30T01:26:08;5.80;;;4.50;;
13487;SDS011;6816;48.506;9.050;2024-01-30T01:29:09;6.10;;;4.13;;
13487;SDS011;6816;48.506;9.050;2024-01-30T01:32:11;5.47;;;3.93;;
13487;SDS011;6816;48.506;9.050;2024-01-30T01:35:12;7.60;;;4.30;;
13487;SDS011;6816;48.506;9.050;2024-01-30T01:38:13;4.43;;;3.87;;
13487;SDS011;6816;48.506;9.050;2024-01-30T01:41:13;5.20;;;4.00;;
13487;SDS011;6816;48.506;9.050;2024-01-30T01:44:14;5.10;;;3.77;;
13487;SDS011;6816;48.506;9.050;2024-01-30T01:47:14;5.30;;;3.93;;
13487;SDS011;6816;48.506;9.050;2024-01-30T01:50:15;4.20;;;3.80;;
13487;SDS011;6816;48.506;9.050;2024-01-30T01:53:19;4.30;;;3.50;;
13487;SDS011;6816;48.506;9.050;2024-01-30T01:56:20;5.13;;;3.80;;
13487;SDS011;6816;48.506;9.050;2024-01-30T01:59:22;5.13;;;3.80;;
13487;SDS011;6816;48.506;9.050;2024-01-30T02:02:24;4.20;;;3.67;;
13487;SDS011;6816;48.506;9.050;2024-01-30T02:05:28;4.77;;;3.57;;
13487;SDS011;6816;48.506;9.050;2024-01-30T02:08:28;4.37;;;3.47;;
13487;SDS011;6816;48.506;9.050;2024-01-30T02:11:29;6.67;;;3.90;;
13487;SDS011;6816;48.506;9.050;2024-01-30T02:14:30;5.43;;;3.73;;
13487;SDS011;6816;48.506;9.050;2024-01-30T02:17:31;4.77;;;3.93;;
13487;SDS011;6816;48.506;9.050;2024-01-30T02:20:31;4.67;;;3.57;;
13487;SDS011;6816;48.506;9.050;2024-01-30T02:23:35;5.10;;;4.13;;
13487;SDS011;6816;48.506;9.050;2024-01-30T02:26:36;5.20;;;3.87;;
13487;SDS011;6816;48.506;9.050;2024-01-30T02:29:37;5.00;;;4.20;;
13487;SDS011;6816;48.506;9.050;2024-01-30T02:32:37;4.20;;;3.37;;
13487;SDS011;6816;48.506;9.050;2024-01-30T02:35:38;4.13;;;3.50;;
13487;SDS011;6816;48.506;9.050;2024-01-30T02:38:39;4.37;;;3.37;;
13487;SDS011;6816;48.506;9.050;2024-01-30T02:41:39;7.10;;;3.93;;
13487;SDS011;6816;48.506;9.050;2024-01-30T02:44:40;4.80;;;3.57;;
13487;SDS011;6816;48.506;9.050;2024-01-30T02:47:40;4.90;;;4.00;;
13487;SDS011;6816;48.506;9.050;2024-01-30T02:50:41;5.00;;;4.00;;
13487;SDS011;6816;48.506;9.050;2024-01-30T02:53:42;7.10;;;4.00;;
13487;SDS011;6816;48.506;9.050;2024-01-30T02:56:43;5.33;;;3.90;;
13487;SDS011;6816;48.506;9.050;2024-01-30T02:59:43;4.50;;;3.27;;
13487;SDS011;6816;48.506;9.050;2024-01-30T03:02:44;6.37;;;3.63;;
13487;SDS011;6816;48.506;9.050;2024-01-30T03:05:44;4.50;;;3.50;;
13487;SDS011;6816;48.506;9.050;2024-01-30T03:08:45;4.83;;;3.40;;
13487;SDS011;6816;48.506;9.050;2024-01-30T03:11:46;4.00;;;3.23;;
13487;SDS011;6816;48.506;9.050;2024-01-30T03:14:46;5.47;;;3.43;;
13487;SDS011;6816;48.506;9.050;2024-01-30T03:17:47;5.67;;;3.20;;
13487;SDS011;6816;48.506;9.050;2024-01-30T03:20:47;4.93;;;3.30;;
13487;SDS011;6816;48.506;9.050;2024-01-30T03:23:48;4.60;;;3.00;;
13487;SDS011;6816;48.506;9.050;2024-01-30T03:26:49;3.63;;;3.17;;
13487;SDS011;6816;48.506;9.050;2024-01-30T03:29:49;5.37;;;3.73;;
13487;SDS011;6816;48.506;9.050;2024-01-30T03:32:50;4.30;;;3.20;;
13487;SDS011;6816;48.506;9.050;2024-01-30T03:35:50;4.63;;;3.70;;
13487;SDS011;6816;48.506;9.050;2024-01-30T03:38:51;4.77;;;3.77;;
13487;SDS011;6816;48.506;9.050;2024-01-30T03:41:52;4.63;;;3.50;;
13487;SDS011;6816;48.506;9.050;2024-01-30T03:44:52;4.70;;;3.30;;
13487;SDS011;6816;48.506;9.050;2024-01-30T03:47:53;4.13;;;3.37;;
13487;SDS011;6816;48.506;9.050;2024-01-30T03:50:54;4.53;;;3.43;;
13487;SDS011;6816;48.506;9.050;2024-01-30T03:53:55;5.33;;;3.87;;
13487;SDS011;6816;48.506;9.050;2024-01-30T03:56:55;5.00;;;3.60;;
13487;SDS011;6816;48.506;9.050;2024-01-30T03:59:56;4.60;;;3.37;;
13487;SDS011;6816;48.506;9.050;2024-01-30T04:02:56;5.13;;;3.50;;
13487;SDS011;6816;48.506;9.050;2024-01-30T04:05:57;4.30;;;3.57;;
13487;SDS011;6816;48.506;9.050;2024-01-30T04:08:57;5.00;;;3.40;;
13487;SDS011;6816;48.506;9.050;2024-01-30T04:11:58;4.40;;;3.20;;
13487;SDS011;6816;48.506;9.050;2024-01-30T04:14:59;5.10;;;3.87;;
13487;SDS011;6816;48.506;9.050;2024-01-30T04:17:59;5.47;;;3.70;;
13487;SDS011;6816;48.506;9.050;2024-01-30T04:21:00;5.77;;;3.87;;
13487;SDS011;6816;48.506;9.050;2024-01-30T04:24:00;4.90;;;3.70;;
13487;SDS011;6816;48.506;9.050;2024-01-30T04:27:01;4.00;;;3.60;;
13487;SDS011;6816;48.506;9.050;2024-01-30T04:30:02;5.20;;;3.27;;
13487;SDS011;6816;48.506;9.050;2024-01-30T04:33:03;8.87;;;4.23;;
13487;SDS011;6816;48.506;9.050;2024-01-30T04:36:04;4.03;;;3.23;;
13487;SDS011;6816;48.506;9.050;2024-01-30T04:39:08;4.67;;;3.50;;
13487;SDS011;6816;48.506;9.050;2024-01-30T04:42:09;4.50;;;3.60;;
13487;SDS011;6816;48.506;9.050;2024-01-30T04:45:10;4.53;;;3.43;;
13487;SDS011;6816;48.506;9.050;2024-01-30T04:48:10;5.03;;;3.40;;
13487;SDS011;6816;48.506;9.050;2024-01-30T04:51:11;4.10;;;3.40;;
13487;SDS011;6816;48.506;9.050;2024-01-30T04:54:11;5.73;;;3.17;;
13487;SDS011;6816;48.506;9.050;2024-01-30T04:57:12;5.00;;;3.20;;
13487;SDS011;6816;48.506;9.050;2024-01-30T05:00:13;4.13;;;3.20;;
13487;SDS011;6816;48.506;9.050;2024-01-30T05:03:13;4.17;;;3.07;;
13487;SDS011;6816;48.506;9.050;2024-01-30T05:06:24;4.50;;;3.37;;
13487;SDS011;6816;48.506;9.050;2024-01-30T05:09:25;4.43;;;3.10;;
13487;SDS011;6816;48.506;9.050;2024-01-30T05:12:26;3.97;;;3.13;;
13487;SDS011;6816;48.506;9.050;2024-01-30T05:15:26;3.33;;;3.03;;
13487;SDS011;6816;48.506;9.050;2024-01-30T05:18:27;4.10;;;3.20;;
13487;SDS011;6816;48.506;9.050;2024-01-30T05:21:28;4.60;;;3.30;;
13487;SDS011;6816;48.506;9.050;2024-01-30T05:24:28;5.17;;;3.40;;
13487;SDS011;6816;48.506;9.050;2024-01-30T05:27:29;4.83;;;3.70;;
13487;SDS011;6816;48.506;9.050;2024-01-30T05:30:29;5.20;;;3.20;;
13487;SDS011;6816;48.506;9.050;2024-01-30T05:33:30;5.07;;;3.40;;
13487;SDS011;6816;48.506;9.050;2024-01-30T05:36:30;3.97;;;3.30;;
13487;SDS011;6816;48.506;9.050;2024-01-30T05:39:31;4.37;;;3.13;;
13487;SDS011;6816;48.506;9.050;2024-01-30T05:42:33;4.27;;;3.47;;
13487;SDS011;6816;48.506;9.050;2024-01-30T05:45:33;4.20;;;3.27;;
13487;SDS011;6816;48.506;9.050;2024-01-30T05:48:35;7.03;;;4.07;;
13487;SDS011;6816;48.506;9.050;2024-01-30T05:51:36;4.60;;;3.27;;
13487;SDS011;6816;48.506;9.050;2024-01-30T05:54:36;5.37;;;3.60;;
13487;SDS011;6816;48.506;9.050;2024-01-30T05:57:37;5.37;;;3.73;;
13487;SDS011;6816;48.506;9.050;2024-01-30T06:00:38;5.23;;;3.77;;
13487;SDS011;6816;48.506;9.050;2024-01-30T06:03:39;6.10;;;4.10;;
13487;SDS011;6816;48.506;9.050;2024-01-30T06:06:41;4.30;;;3.80;;
13487;SDS011;6816;48.506;9.050;2024-01-30T06:09:41;4.43;;;3.80;;
13487;SDS011;6816;48.506;9.050;2024-01-30T06:12:42;5.07;;;3.60;;
13487;SDS011;6816;48.506;9.050;2024-01-30T06:15:42;5.67;;;3.87;;
13487;SDS011;6816;48.506;9.050;2024-01-30T06:18:43;5.07;;;3.63;;
13487;SDS011;6816;48.506;9.050;2024-01-30T06:21:44;5.37;;;3.97;;
13487;SDS011;6816;48.506;9.050;2024-01-30T06:24:45;4.73;;;3.60;;
13487;SDS011;6816;48.506;9.050;2024-01-30T06:27:47;4.53;;;3.47;;
13487;SDS011;6816;48.506;9.050;2024-01-30T06:30:48;5.03;;;3.30;;
13487;SDS011;6816;48.506;9.050;2024-01-30T06:33:49;5.50;;;3.40;;
13487;SDS011;6816;48.506;9.050;2024-01-30T06:36:50;4.50;;;3.30;;
13487;SDS011;6816;48.506;9.050;2024-01-30T06:39:50;5.90;;;3.63;;
13487;SDS011;6816;48.506;9.050;2024-01-30T06:42:52;5.27;;;3.90;;
13487;SDS011;6816;48.506;9.050;2024-01-30T06:45:53;6.03;;;4.00;;
13487;SDS011;6816;48.506;9.050;2024-01-30T06:48:53;5.93;;;3.50;;
13487;SDS011;6816;48.506;9.050;2024-01-30T06:51:54;5.37;;;3.70;;
13487;SDS011;6816;48.506;9.050;2024-01-30T06:54:54;6.17;;;4.23;;
13487;SDS011;6816;48.506;9.050;2024-01-30T06:57:55;5.20;;;3.67;;
13487;SDS011;6816;48.506;9.050;2024-01-30T07:00:56;5.97;;;4.13;;
13487;SDS011;6816;48.506;9.050;2024-01-30T07:03:57;5.80;;;3.67;;
13487;SDS011;6816;48.506;9.050;2024-01-30T07:06:58;5.87;;;4.23;;
13487;SDS011;6816;48.506;9.050;2024-01-30T07:09:58;7.00;;;4.17;;
13487;SDS011;6816;48.506;9.050;2024-01-30T07:13:00;5.30;;;3.90;;
13487;SDS011;6816;48.506;9.050;2024-01-30T07:16:01;5.33;;;4.27;;
13487;SDS011;6816;48.506;9.050;2024-01-30T07:19:01;4.70;;;3.73;;
13487;SDS011;6816;48.506;9.050;2024-01-30T07:22:02;6.70;;;4.00;;
13487;SDS011;6816;48.506;9.050;2024-01-30T07:25:03;7.17;;;5.13;;
13487;SDS011;6816;48.506;9.050;2024-01-30T07:28:04;6.90;;;5.20;;
13487;SDS011;6816;48.506;9.050;2024-01-30T07:31:06;6.80;;;4.40;;
13487;SDS011;6816;48.506;9.050;2024-01-30T07:34:06;7.57;;;5.83;;
13487;SDS011;6816;48.506;9.050;2024-01-30T07:37:07;9.30;;;6.17;;
13487;SDS011;6816;48.506;9.050;2024-01-30T07:40:08;8.93;;;6.10;;
13487;SDS011;6816;48.506;9.050;2024-01-30T07:43:09;10.30;;;6.90;;
13487;SDS011;6816;48.506;9.050;2024-01-30T07:46:10;9.07;;;6.70;;
13487;SDS011;6816;48.506;9.050;2024-01-30T07:49:10;8.87;;;6.93;;
13487;SDS011;6816;48.506;9.050;2024-01-30T07:52:11;9.57;;;6.23;;
13487;SDS011;6816;48.506;9.050;2024-01-30T07:55:12;11.00;;;7.07;;
13487;SDS011;6816;48.506;9.050;2024-01-30T07:58:12;8.07;;;6.20;;
13487;SDS011;6816;48.506;9.050;2024-01-30T08:01:14;8.03;;;6.13;;
13487;SDS011;6816;48.506;9.050;2024-01-30T08:04:15;8.40;;;5.67;;
13487;SDS011;6816;48.506;9.050;2024-01-30T08:07:17;7.23;;;5.57;;
13487;SDS011;6816;48.506;9.050;2024-01-30T08:10:18;6.50;;;5.50;;
13487;SDS011;6816;48.506;9.050;2024-01-30T08:13:18;6.93;;;5.03;;
13487;SDS011;6816;48.506;9.050;2024-01-30T08:16:19;6.50;;;5.07;;
13487;SDS011;6816;48.506;9.050;2024-01-30T08:19:20;7.43;;;5.00;;
13487;SDS011;6816;48.506;9.050;2024-01-30T08:22:20;5.53;;;4.53;;
13487;SDS011;6816;48.506;9.050;2024-01-30T08:25:21;5.50;;;4.20;;
13487;SDS011;6816;48.506;9.050;2024-01-30T08:28:21;5.07;;;4.30;;
13487;SDS011;6816;48.506;9.050;2024-01-30T08:31:22;5.20;;;4.40;;
13487;SDS011;6816;48.506;9.050;2024-01-30T08:34:23;5.73;;;4.27;;
13487;SDS011;6816;48.506;9.050;2024-01-30T08:37:23;5.40;;;4.30;;
13487;SDS011;6816;48.506;9.050;2024-01-30T08:40:24;6.43;;;4.80;;
13487;SDS011;6816;48.506;9.050;2024-01-30T08:43:25;6.10;;;4.90;;
13487;SDS011;6816;48.506;9.050;2024-01-30T08:46:25;5.27;;;4.67;;
13487;SDS011;6816;48.506;9.050;2024-01-30T08:49:26;6.13;;;4.30;;
13487;SDS011;6816;48.506;9.050;2024-01-30T08:52:27;6.43;;;5.30;;
13487;SDS011;6816;48.506;9.050;2024-01-30T08:55:27;6.07;;;5.00;;
13487;SDS011;6816;48.506;9.050;2024-01-30T08:58:28;4.93;;;4.43;;
13487;SDS011;6816;48.506;9.050;2024-01-30T09:01:29;6.83;;;4.80;;
13487;SDS011;6816;48.506;9.050;2024-01-30T09:04:29;6.47;;;4.90;;
13487;SDS011;6816;48.506;9.050;2024-01-30T09:07:30;5.77;;;4.63;;
13487;SDS011;6816;48.506;9.050;2024-01-30T09:10:30;7.93;;;5.17;;
13487;SDS011;6816;48.506;9.050;2024-01-30T09:13:31;8.10;;;5.17;;
13487;SDS011;6816;48.506;9.050;2024-01-30T09:16:31;6.60;;;5.10;;
13487;SDS011;6816;48.506;9.050;2024-01-30T09:19:32;6.53;;;4.50;;
13487;SDS011;6816;48.506;9.050;2024-01-30T09:22:32;5.83;;;4.80;;
13487;SDS011;6816;48.506;9.050;2024-01-30T09:25:33;5.67;;;4.77;;
13487;SDS011;6816;48.506;9.050;2024-01-30T09:28:34;8.77;;;5.80;;
13487;SDS011;6816;48.506;9.050;2024-01-30T09:31:35;6.33;;;4.97;;
13487;SDS011;6816;48.506;9.050;2024-01-30T09:34:35;6.77;;;5.70;;
13487;SDS011;6816;48.506;9.050;2024-01-30T09:37:36;8.00;;;5.87;;
13487;SDS011;6816;48.506;9.050;2024-01-30T09:40:37;6.40;;;5.80;;
13487;SDS011;6816;48.506;9.050;2024-01-30T09:43:37;7.13;;;5.20;;
13487;SDS011;6816;48.506;9.050;2024-01-30T09:46:40;6.37;;;5.30;;
13487;SDS011;6816;48.506;9.050;2024-01-30T09:49:40;7.13;;;5.60;;
13487;SDS011;6816;48.506;9.050;2024-01-30T09:52:46;9.40;;;5.40;;
13487;SDS011;6816;48.506;9.050;2024-01-30T09:55:48;7.17;;;5.70;;
13487;SDS011;6816;48.506;9.050;2024-01-30T09:58:50;6.20;;;5.53;;
13487;SDS011;6816;48.506;9.050;2024-01-30T10:01:51;6.13;;;5.50;;
13487;SDS011;6816;48.506;9.050;2024-01-30T10:04:52;7.77;;;5.87;;
13487;SDS011;6816;48.506;9.050;2024-01-30T10:07:53;7.63;;;6.33;;
13487;SDS011;6816;48.506;9.050;2024-01-30T10:10:57;7.23;;;6.33;;
13487;SDS011;6816;48.506;9.050;2024-01-30T10:13:57;7.33;;;5.80;;
13487;SDS011;6816;48.506;9.050;2024-01-30T10:16:58;7.43;;;6.10;;
13487;SDS011;6816;48.506;9.050;2024-01-30T10:19:59;6.47;;;5.77;;
13487;SDS011;6816;48.506;9.050;2024-01-30T10:23:00;7.60;;;6.10;;
13487;SDS011;6816;48.506;9.050;2024-01-30T10:26:02;9.57;;;6.37;;
13487;SDS011;6816;48.506;9.050;2024-01-30T10:29:04;7.30;;;6.13;;
13487;SDS011;6816;48.506;9.050;2024-01-30T10:32:05;7.20;;;6.47;;
13487;SDS011;6816;48.506;9.050;2024-01-30T10:35:06;6.57;;;5.87;;
13487;SDS011;6816;48.506;9.050;2024-01-30T10:38:06;7.83;;;6.07;;
13487;SDS011;6816;48.506;9.050;2024-01-30T10:41:10;6.67;;;5.90;;
13487;SDS011;6816;48.506;9.050;2024-01-30T10:44:16;7.03;;;6.27;;
13487;SDS011;6816;48.506;9.050;2024-01-30T10:47:21;7.33;;;6.23;;
13487;SDS011;6816;48.506;9.050;2024-01-30T10:50:27;7.03;;;6.07;;
13487;SDS011;6816;48.506;9.050;2024-01-30T10:53:28;6.53;;;5.73;;
13487;SDS011;6816;48.506;9.050;2024-01-30T10:56:32;10.07;;;6.60;;
13487;SDS011;6816;48.506;9.050;2024-01-30T10:59:33;8.17;;;6.73;;
13487;SDS011;6816;48.506;9.050;2024-01-30T11:02:34;8.97;;;6.73;;
13487;SDS011;6816;48.506;9.050;2024-01-30T11:05:35;8.47;;;6.53;;
13487;SDS011;6816;48.506;9.050;2024-01-30T11:08:36;9.00;;;6.50;;
13487;SDS011;6816;48.506;9.050;2024-01-30T11:11:50;8.10;;;6.33;;
13487;SDS011;6816;48.506;9.050;2024-01-30T11:15:06;7.93;;;6.63;;
13487;SDS011;6816;48.506;9.050;2024-01-30T11:18:08;6.97;;;5.87;;
13487;SDS011;6816;48.506;9.050;2024-01-30T11:21:09;7.53;;;6.00;;
13487;SDS011;6816;48.506;9.050;2024-01-30T11:24:14;7.20;;;6.17;;
13487;SDS011;6816;48.506;9.050;2024-01-30T11:27:15;8.90;;;6.40;;
13487;SDS011;6816;48.506;9.050;2024-01-30T11:30:23;7.90;;;6.93;;
13487;SDS011;6816;48.506;9.050;2024-01-30T11:33:28;8.00;;;6.70;;
13487;SDS011;6816;48.506;9.050;2024-01-30T11:36:33;7.47;;;6.03;;
13487;SDS011;6816;48.506;9.050;2024-01-30T11:39:37;8.07;;;6.77;;
13487;SDS011;6816;48.506;9.050;2024-01-30T11:42:38;11.43;;;7.23;;
13487;SDS011;6816;48.506;9.050;2024-01-30T11:45:39;8.40;;;7.30;;
13487;SDS011;6816;48.506;9.050;2024-01-30T11:48:40;8.60;;;7.27;;
13487;SDS011;6816;48.506;9.050;2024-01-30T11:51:41;10.10;;;7.40;;
13487;SDS011;6816;48.506;9.050;2024-01-30T11:54:42;8.83;;;7.60;;
13487;SDS011;6816;48.506;9.050;2024-01-30T11:57:43;8.57;;;7.03;;
13487;SDS011;6816;48.506;9.050;2024-01-30T12:00:55;9.70;;;8.30;;
13487;SDS011;6816;48.506;9.050;2024-01-30T12:03:56;8.80;;;7.30;;
13487;SDS011;6816;48.506;9.050;2024-01-30T12:06:57;10.20;;;7.73;;
13487;SDS011;6816;48.506;9.050;2024-01-30T12:09:58;11.07;;;7.87;;
13487;SDS011;6816;48.506;9.050;2024-01-30T12:13:00;9.30;;;7.37;;
13487;SDS011;6816;48.506;9.050;2024-01-30T12:16:01;9.27;;;7.03;;
13487;SDS011;6816;48.506;9.050;2024-01-30T12:19:02;9.17;;;7.10;;
13487;SDS011;6816;48.506;9.050;2024-01-30T12:22:03;8.57;;;6.97;;
13487;SDS011;6816;48.506;9.050;2024-01-30T12:25:11;9.77;;;7.23;;
13487;SDS011;6816;48.506;9.050;2024-01-30T12:28:14;7.60;;;6.60;;
13487;SDS011;6816;48.506;9.050;2024-01-30T12:31:15;8.13;;;6.93;;
13487;SDS011;6816;48.506;9.050;2024-01-30T12:34:17;8.73;;;6.83;;
13487;SDS011;6816;48.506;9.050;2024-01-30T12:37:20;9.37;;;7.00;;
13487;SDS011;6816;48.506;9.050;2024-01-30T12:40:22;17.33;;;11.50;;
13487;SDS011;6816;48.506;9.050;2024-01-30T12:43:25;38.23;;;23.73;;
13487;SDS011;6816;48.506;9.050;2024-01-30T12:46:29;20.70;;;13.90;;
13487;SDS011;6816;48.506;9.050;2024-01-30T12:49:29;16.10;;;11.87;;
13487;SDS011;6816;48.506;9.050;2024-01-30T12:52:30;11.20;;;9.87;;
13487;SDS011;6816;48.506;9.050;2024-01-30T12:55:31;11.00;;;8.10;;
13487;SDS011;6816;48.506;9.050;2024-01-30T12:58:31;10.00;;;8.27;;
13487;SDS011;6816;48.506;9.050;2024-01-30T13:01:32;10.67;;;7.87;;
13487;SDS011;6816;48.506;9.050;2024-01-30T13:04:32;8.83;;;6.97;;
13487;SDS011;6816;48.506;9.050;2024-01-30T13:07:33;7.57;;;6.80;;
13487;SDS011;6816;48.506;9.050;2024-01-30T13:10:34;8.77;;;7.83;;
13487;SDS011;6816;48.506;9.050;2024-01-30T13:13:34;8.80;;;6.93;;
13487;SDS011;6816;48.506;9.050;2024-01-30T13:16:35;10.10;;;6.47;;
13487;SDS011;6816;48.506;9.050;2024-01-30T13:19:36;11.17;;;7.13;;
13487;SDS011;6816;48.506;9.050;2024-01-30T13:22:37;8.20;;;6.97;;
13487;SDS011;6816;48.506;9.050;2024-01-30T13:25:38;8.00;;;6.73;;
13487;SDS011;6816;48.506;9.050;2024-01-30T13:28:39;11.37;;;7.60;;
13487;SDS011;6816;48.506;9.050;2024-01-30T13:31:39;9.77;;;8.20;;
13487;SDS011;6816;48.506;9.050;2024-01-30T13:34:41;10.10;;;7.80;;
13487;SDS011;6816;48.506;9.050;2024-01-30T13:37:41;9.90;;;7.97;;
13487;SDS011;6816;48.506;9.050;2024-01-30T13:40:42;9.43;;;7.73;;
13487;SDS011;6816;48.506;9.050;2024-01-30T13:43:45;10.50;;;8.17;;
13487;SDS011;6816;48.506;9.050;2024-01-30T13:46:46;9.47;;;6.90;;
13487;SDS011;6816;48.506;9.050;2024-01-30T13:49:47;10.27;;;7.20;;
13487;SDS011;6816;48.506;9.050;2024-01-30T13:52:47;9.53;;;7.03;;
13487;SDS011;6816;48.506;9.050;2024-01-30T13:55:48;8.47;;;7.40;;
13487;SDS011;6816;48.506;9.050;2024-01-30T13:58:49;9.27;;;7.43;;
13487;SDS011;6816;48.506;9.050;2024-01-30T14:01:52;8.40;;;7.50;;
13487;SDS011;6816;48.506;9.050;2024-01-30T14:04:52;9.87;;;7.07;;
13487;SDS011;6816;48.506;9.050;2024-01-30T14:07:53;8.53;;;7.13;;
13487;SDS011;6816;48.506;9.050;2024-01-30T14:10:54;8.30;;;7.50;;
13487;SDS011;6816;48.506;9.050;2024-01-30T14:13:56;8.57;;;6.77;;
13487;SDS011;6816;48.506;9.050;2024-01-30T14:16:56;12.43;;;7.43;;
13487;SDS011;6816;48.506;9.050;2024-01-30T14:19:57;9.43;;;7.10;;
13487;SDS011;6816;48.506;9.050;2024-01-30T14:22:57;8.43;;;7.53;;
13487;SDS011;6816;48.506;9.050;2024-01-30T14:25:58;11.37;;;6.93;;
13487;SDS011;6816;48.506;9.050;2024-01-30T14:28:59;9.67;;;7.30;;
13487;SDS011;6816;48.506;9.050;2024-01-30T14:32:00;8.63;;;7.27;;
13487;SDS011;6816;48.506;9.050;2024-01-30T14:35:01;11.03;;;7.20;;
13487;SDS011;6816;48.506;9.050;2024-01-30T14:38:02;8.60;;;7.00;;
13487;SDS011;6816;48.506;9.050;2024-01-30T14:41:05;9.63;;;6.90;;
13487;SDS011;6816;48.506;9.050;2024-01-30T14:44:05;7.63;;;6.70;;
13487;SDS011;6816;48.506;9.050;2024-01-30T14:47:08;8.57;;;6.87;;
13487;SDS011;6816;48.506;9.050;2024-01-30T14:50:08;6.53;;;5.90;;
13487;SDS011;6816;48.506;9.050;2024-01-30T14:53:09;8.50;;;6.57;;
13487;SDS011;6816;48.506;9.050;2024-01-30T14:56:09;7.67;;;6.67;;
13487;SDS011;6816;48.506;9.050;2024-01-30T14:59:10;7.83;;;6.73;;
13487;SDS011;6816;48.506;9.050;2024-01-30T15:02:12;6.80;;;6.10;;
13487;SDS011;6816;48.506;9.050;2024-01-30T15:05:13;6.83;;;6.13;;
13487;SDS011;6816;48.506;9.050;2024-01-30T15:08:14;9.00;;;6.67;;
13487;SDS011;6816;48.506;9.050;2024-01-30T15:11:15;7.83;;;6.47;;
13487;SDS011;6816;48.506;9.050;2024-01-30T15:14:15;9.77;;;6.63;;
13487;SDS011;6816;48.506;9.050;2024-01-30T15:17:17;9.60;;;6.60;;
13487;SDS011;6816;48.506;9.050;2024-01-30T15:20:18;9.67;;;7.03;;
13487;SDS011;6816;48.506;9.050;2024-01-30T15:23:19;8.00;;;6.57;;
13487;SDS011;6816;48.506;9.050;2024-01-30T15:26:19;11.30;;;7.47;;
13487;SDS011;6816;48.506;9.050;2024-01-30T15:29:20;10.73;;;6.77;;
13487;SDS011;6816;48.506;9.050;2024-01-30T15:32:22;7.83;;;6.93;;
13487;SDS011;6816;48.506;9.050;2024-01-30T15:35:23;13.43;;;8.90;;
13487;SDS011;6816;48.506;9.050;2024-01-30T15:38:23;7.90;;;6.97;;
13487;SDS011;6816;48.506;9.050;2024-01-30T15:41:24;8.67;;;6.53;;
13487;SDS011;6816;48.506;9.050;2024-01-30T15:44:25;10.57;;;7.83;;
13487;SDS011;6816;48.506;9.050;2024-01-30T15:47:25;15.53;;;7.70;;
13487;SDS011;6816;48.506;9.050;2024-01-30T15:50:26;9.83;;;7.10;;
13487;SDS011;6816;48.506;9.050;2024-01-30T15:53:26;13.07;;;8.20;;
13487;SDS011;6816;48.506;9.050;2024-01-30T15:56:27;13.30;;;8.30;;
13487;SDS011;6816;48.506;9.050;2024-01-30T15:59:28;11.17;;;8.10;;
13487;SDS011;6816;48.506;9.050;2024-01-30T16:02:28;10.27;;;7.83;;
13487;SDS011;6816;48.506;9.050;2024-01-30T16:05:29;11.13;;;7.57;;
13487;SDS011;6816;48.506;9.050;2024-01-30T16:08:29;13.00;;;7.73;;
13487;SDS011;6816;48.506;9.050;2024-01-30T16:11:30;9.77;;;7.53;;
13487;SDS011;6816;48.506;9.050;2024-01-30T16:14:32;9.33;;;7.07;;
13487;SDS011;6816;48.506;9.050;2024-01-30T16:17:33;12.03;;;6.63;;
13487;SDS011;6816;48.506;9.050;2024-01-30T16:20:34;10.93;;;7.23;;
13487;SDS011;6816;48.506;9.050;2024-01-30T16:23:35;9.33;;;7.43;;
13487;SDS011;6816;48.506;9.050;2024-01-30T16:26:35;8.43;;;6.80;;
13487;SDS011;6816;48.506;9.050;2024-01-30T16:29:36;9.83;;;6.60;;
13487;SDS011;6816;48.506;9.050;2024-01-30T16:32:36;9.33;;;7.33;;
13487;SDS011;6816;48.506;9.050;2024-01-30T16:35:37;8.20;;;6.40;;
13487;SDS011;6816;48.506;9.050;2024-01-30T16:38:38;13.63;;;8.97;;
13487;SDS011;6816;48.506;9.050;2024-01-30T16:41:38;11.83;;;9.47;;
13487;SDS011;6816;48.506;9.050;2024-01-30T16:44:40;11.43;;;9.13;;
13487;SDS011;6816;48.506;9.050;2024-01-30T16:47:40;12.77;;;8.37;;
13487;SDS011;6816;48.506;9.050;2024-01-30T16:50:43;10.93;;;8.33;;
13487;SDS011;6816;48.506;9.050;2024-01-30T16:53:44;13.20;;;9.23;;
13487;SDS011;6816;48.506;9.050;2024-01-30T16:56:44;13.40;;;8.93;;
13487;SDS011;6816;48.506;9.050;2024-01-30T16:59:47;12.03;;;7.73;;
13487;SDS011;6816;48.506;9.050;2024-01-30T17:02:48;13.43;;;7.53;;
13487;SDS011;6816;48.506;9.050;2024-01-30T17:05:49;13.03;;;7.47;;
13487;SDS011;6816;48.506;9.050;2024-01-30T17:08:54;11.20;;;7.67;;
13487;SDS011;6816;48.506;9.050;2024-01-30T17:11:55;13.70;;;7.90;;
13487;SDS011;6816;48.506;9.050;2024-01-30T17:14:56;10.70;;;7.30;;
13487;SDS011;6816;48.506;9.050;2024-01-30T17:17:58;10.90;;;8.00;;
13487;SDS011;6816;48.506;9.050;2024-01-30T17:20:59;10.73;;;7.47;;
13487;SDS011;6816;48.506;9.050;2024-01-30T17:24:00;11.87;;;8.03;;
13487;SDS011;6816;48.506;9.050;2024-01-30T17:27:00;10.10;;;7.17;;
13487;SDS011;6816;48.506;9.050;2024-01-30T17:30:01;10.70;;;7.13;;
13487;SDS011;6816;48.506;9.050;2024-01-30T17:33:03;8.77;;;7.33;;
13487;SDS011;6816;48.506;9.050;2024-01-30T17:36:04;13.03;;;7.07;;
13487;SDS011;6816;48.506;9.050;2024-01-30T17:39:05;10.80;;;6.87;;
13487;SDS011;6816;48.506;9.050;2024-01-30T17:42:07;10.93;;;7.57;;
13487;SDS011;6816;48.506;9.050;2024-01-30T17:45:08;11.63;;;8.00;;
13487;SDS011;6816;48.506;9.050;2024-01-30T17:48:09;12.73;;;7.23;;
13487;SDS011;6816;48.506;9.050;2024-01-30T17:51:09;8.70;;;5.90;;
13487;SDS011;6816;48.506;9.050;2024-01-30T17:54:10;9.87;;;6.37;;
13487;SDS011;6816;48.506;9.050;2024-01-30T17:57:11;12.43;;;6.47;;
13487;SDS011;6816;48.506;9.050;2024-01-30T18:00:11;10.07;;;5.50;;
13487;SDS011;6816;48.506;9.050;2024-01-30T18:03:12;7.37;;;5.30;;
13487;SDS011;6816;48.506;9.050;2024-01-30T18:06:13;10.47;;;5.40;;
13487;SDS011;6816;48.506;9.050;2024-01-30T18:09:15;10.13;;;6.00;;
13487;SDS011;6816;48.506;9.050;2024-01-30T18:12:16;8.63;;;5.10;;
13487;SDS011;6816;48.506;9.050;2024-01-30T18:15:16;6.47;;;5.00;;
13487;SDS011;6816;48.506;9.050;2024-01-30T18:18:17;5.97;;;4.37;;
13487;SDS011;6816;48.506;9.050;2024-01-30T18:21:17;6.33;;;3.73;;
13487;SDS011;6816;48.506;9.050;2024-01-30T18:24:18;6.33;;;3.97;;